Moab, UT (84532)

1:14 PM MST on January 20, 2017 (GMT -0700)
Canon Vista | | Change Station

Elev 4183 ft 38.56 °N, 109.53 °W | Updated 0 second ago

Mostly Cloudy
Mostly Cloudy
45.3 °F
Feels Like 45 °F
N
1.0
Wind Variable Wind from SW
Gusts 3.0 mph

Today
High -- | Low -- °F
--% Chance of Precip.
Yesterday
High -- | Low -- °F
Precip. -- in
Pressure 29.61 in
Visibility 10.0 miles
Clouds Few 1100 ft
Mostly Cloudy 6500 ft
Windchill 45 °F
Dew Point 35 °F
Humidity 66%
Rainfall 0.07 in
Snow Depth Not available.
7:32 AM 5:27 PM
Last Quarter, 41% visible
METAR KCNY 201953Z AUTO 32006KT 10SM FEW011 BKN065 01/00 A2957 RMK AO2 SLP026 T00060000
Pressure 29.61 in
Visibility 10.0 miles
Clouds Few 1100 ft
Mostly Cloudy 6500 ft
Windchill 45 °F
Dew Point 35 °F
Humidity 66%
Rainfall 0.07 in
Snow Depth Not available.
7:32 AM 5:27 PM
Last Quarter, 41% visible
METAR KCNY 201953Z AUTO 32006KT 10SM FEW011 BKN065 01/00 A2957 RMK AO2 SLP026 T00060000

Get Your Daily Forecast Email!

Thanks for signing up!

Be on the lookout for a verification email in your inbox.

You'll start receiving the daily forecast at 8 AM.

×

10-Day Weather Forecast

Almanac

Astronomy

Jan. 20, 2017 Rise Set
Actual Time
Civil Twilight
Nautical Twilight
Astronomical Twilight
Moon
Length of Visible Light
Length of Day
Tomorrow will be .
, % of the Moon is Illuminated

Today's Extremes

State Highs State Lows

Community

WunderPhotos

Upload Photos

1,962,540 photos uploaded!

WunderBlog® & News

Nearby

Air Quality

  Air Quality AQ Index Pollutant
Not available.

Snow Depth

Station Depth Elevation

Earthquake Activity

City Distance Mag. Time & Date
Minimum magnitude displayed is 2.5.

Coastal Water Temperatures

Place Temperature

Stations

Nearby Weather Stations

Station Location Temp. Windchill Dew Point Humidity Wind Precip. Elev Updated Type
                   

Watches & Warnings

There are currently no watches in effect.